Customer events.

Some useful information.

Events

Do you want to create a unique experience for your employees, clients, suppliers or partners?

We are here to help you plan an event that reflects your image, a tailor-made event in France and in Europe.

We ensure that your events run smoothly by coordinating the various participants: drivers, mechanics, service providers, reception areas, etc.

THEY HAVE PARTICIPATED

Our other services.

Aeronautical weekends.
Initiation.
Training.
Book your initiation flight.
METAR:

LFQA 070630Z AUTO 25002KT 5000 BR SCT013 SCT020 OVC035 02/01 Q1019


live view of the airfield
invoicing legal Notice privacy policy
Cochet Concept
cx